NCAR-RAP Real-Time Weather Data

Output produced by METARs form (19 June 2019  11:01 UTC)
found at http://weather.rap.ucar.edu/surface/
 
KMSO 191053Z AUTO 28004KT 10SM CLR 11/06 A2990 RMK AO2 SLP110 T01060061
KMSO 190953Z AUTO 00000KT 10SM CLR 13/06 A2990 RMK AO2 SLP108 T01330061
KMSO 190853Z AUTO 29004KT 10SM CLR 12/06 A2993 RMK AO2 SLP116 T01220061 57009
KMSO 190753Z AUTO 00000KT 10SM CLR 14/07 A2994 RMK AO2 SLP120 T01390067
KMSO 190653Z AUTO 00000KT 10SM CLR 14/07 A2995 RMK AO2 SLP124 T01390067 402780106
KMSO 190553Z AUTO 33004KT 10SM CLR 16/07 A2996 RMK AO2 SLP127 T01560072 10272 20150 50003
KMSO 190453Z AUTO 33004KT 10SM FEW070 18/06 A2996 RMK AO2 SLP130 T01830061
KMSO 190353Z 34004KT 10SM CLR 18/06 A2996 RMK AO2 SLP131 T01830056
KMSO 190253Z 29011KT 10SM CLR 23/06 A2995 RMK AO2 SLP126 T02280056 53005
KMSO 190153Z 29011KT 10SM SCT090 24/06 A2994 RMK AO2 SLP121 T02440061
KMSO 190053Z 27013KT 10SM FEW085 26/06 A2993 RMK AO2 SLP117 T02610056
KMSO 182353Z 28012KT 10SM CLR 27/06 A2993 RMK AO2 SLP117 T02720061 10278 20222 56010
KMSO 182253Z 28013G19KT 10SM SCT080 26/06 A2994 RMK AO2 SLP120 T02610061
KMSO 182153Z 28010KT 10SM BKN085 26/06 A2995 RMK AO2 SLP124 T02560061
KMSO 182053Z 30013G21KT 10SM BKN080 27/06 A2996 RMK AO2 SLP127 T02670061 56014
KMSO 181953Z 29006KT 10SM SCT080 25/07 A2996 RMK AO2 SLP132 T02500072
KMSO 181853Z 26006KT 10SM SCT075 BKN090 24/09 A2999 RMK AO2 SLP140 T02390094
KMSO 181753Z 19005KT 10SM FEW075 FEW090 23/11 A3001 RMK AO2 SLP146 T02280106 10228 20117 58009
KMSO 181653Z 22003KT 10SM BKN060 19/09 A3002 RMK AO2 SLP155 T01940094